Bautista Pino — EASK — position and weather

sailwx.info

Track history (hours):
 
Tides and Currents Weather Stations Pressure Air Temp Water Temp Dewpoint Dewpoint Depression Visibility Wind Speed Wind Dir Waves Ship Positions

Bautista Pino

Last reported at 2017-Sep-27 23:59 UTC. Time now 2017-Oct-19 18:50 UTC.
Position N 43°47' W 007°21'.
Warning: this ship's position is 21 days out of date.

Length 29 m; draft 3.5 m.

Type: Fishing. MMSI: 224181290.

Date/timePositionNaut miles runAvg speedWind from/ knotsBaromVisibWave heightAir tempDewpointWater temp
2017-Sep-27 23:59N 43°47' W 007°21'2 4.5
2017-Sep-27 23:28N 43°46' W 007°24'4 9.4
2017-Sep-27 23:00N 43°46' W 007°30'4 8.7
2017-Sep-27 22:30N 43°43' W 007°35'3 5.6
2017-Sep-27 22:00N 43°41' W 007°36'0 0.0
2017-Sep-27 21:30N 43°41' W 007°36'1 1.6
2017-Sep-27 21:00N 43°42' W 007°36'4 8.8
2017-Sep-27 20:31N 43°46' W 007°37'5 8.8
2017-Sep-27 20:00N 43°49' W 007°42'  
Track history (hours):
 
Tides and Currents Weather Stations Pressure Air Temp Water Temp Dewpoint Dewpoint Depression Visibility Wind Speed Wind Dir Waves Ship Positions

Bautista Pino

Last reported at 2017-Sep-27 23:59 UTC. Time now 2017-Oct-19 18:50 UTC.
Position N 43°47' W 007°21'.
Warning: this ship's position is 21 days out of date.

Length 29 m; draft 3.5 m.

Type: Fishing. MMSI: 224181290.

Date/timePositionNaut miles runAvg speedWind from/ knotsBaromVisibWave heightAir tempDewpointWater temp
2017-Sep-27 23:59N 43°47' W 007°21'2 4.5
2017-Sep-27 23:28N 43°46' W 007°24'4 9.4
2017-Sep-27 23:00N 43°46' W 007°30'4 8.7
2017-Sep-27 22:30N 43°43' W 007°35'3 5.6
2017-Sep-27 22:00N 43°41' W 007°36'0 0.0
2017-Sep-27 21:30N 43°41' W 007°36'1 1.6
2017-Sep-27 21:00N 43°42' W 007°36'4 8.8
2017-Sep-27 20:31N 43°46' W 007°37'5 8.8
2017-Sep-27 20:00N 43°49' W 007°42'  

Dump ship's entire track history